August 18, 2022

Time Code Weather Temp. Visibility Ceiling Wind METAR/SPECI
21:30
V
21 °C 10 km+ - 310° 310° 3 kt METAR LFST 181930Z AUTO 31003KT CAVOK 21/18 Q1012 TEMPO SCT030TCU
21:00
V
22 °C 10 km+ - 330° 330° 4 kt METAR LFST 181900Z AUTO 33004KT CAVOK 22/18 Q1012 TEMPO SHRA SCT030TCU
20:30
V
22 °C 10 km+ - 310° 310° 4 kt METAR LFST 181830Z AUTO 31004KT 9999 ///CB 22/18 Q1012 TEMPO SHRA
20:00
V
23 °C 10 km+ - 330° 330° 4 kt METAR LFST 181800Z AUTO 33004KT 300V360 9999 ///CB 23/18 Q1012 TEMPO SHRA
19:30
V
23 °C 10 km+ - 320° 320° 7 kt METAR LFST 181730Z AUTO 32007KT 9999 //////CB 23/18 Q1012 TEMPO SHRA
19:00
V
23 °C 10 km+ - 330° 330° 9 kt METAR LFST 181700Z AUTO 33009KT 9999 FEW038/// SCT120/// ///CB 23/18 Q1012 TEMPO 4000 SHRA
18:30
V
24 °C 10 km+ 9,200 ft 350° 350° 10 kt METAR LFST 181630Z AUTO 35010KT 9999 FEW037 BKN092 BKN110 24/18 Q1012 TEMPO 4000 SHRA SCT020TCU BKN030
18:00
V
25 °C 10 km+ 3,500 ft 340° 340° 8 kt METAR LFST 181600Z AUTO 34008KT 310V020 9999 BKN035 BKN092 BKN110 25/17 Q1012 TEMPO 4000 SHRA FEW030CB BKN040
17:30
V
25 °C 10 km+ 3,400 ft 350° 350° 4 kt METAR LFST 181530Z AUTO 35004KT 300V030 9999 BKN034 BKN100 25/17 Q1012 TEMPO 4000 SHRA FEW030CB BKN040
17:00
V
25 °C 10 km+ 3,200 ft 340° 340° 5 kt METAR LFST 181500Z AUTO 34005KT 270V070 9999 BKN032 BKN064 BKN100 25/18 Q1012 TEMPO 4000 SHRA FEW030CB BKN040
16:30
V
25 °C 10 km+ 6,400 ft 360° 360° 6 kt METAR LFST 181430Z AUTO 36006KT 330V030 9999 SCT029 SCT036 BKN064 25/17 Q1012 TEMPO 4000 SHRA FEW030CB BKN040
16:00
V
24 °C 10 km+ 3,100 ft 350° 350° 6 kt METAR LFST 181400Z AUTO 35006KT 310V050 9999 SCT025 BKN031 BKN060 24/18 Q1012 TEMPO 4000 SHRA FEW030CB BKN040
15:30
M
24 °C 10 km+ 2,800 ft 360° 360° 6 kt METAR LFST 181330Z AUTO 36006KT 330V030 9999 FEW021 BKN028 BKN066 24/18 Q1012 TEMPO 4000 SHRA FEW030CB BKN040
15:00
V
23 °C 10 km+ 3,100 ft 020° 020° 6 kt METAR LFST 181300Z AUTO 02006KT 360V060 9999 FEW019 BKN031 OVC060 23/18 Q1012 TEMPO 30012KT 4000 SHRA FEW030CB BKN040
14:30
V
22 °C 10 km+ 3,000 ft 010° 010° 6 kt METAR LFST 181230Z AUTO 01006KT 340V040 9999 FEW015 SCT022 OVC030 22/18 Q1012 TEMPO 4000 SHRA FEW030CB BKN040
14:00
M
22 °C 10 km+ 1,500 ft 010° 010° 8 kt METAR LFST 181200Z AUTO 01008KT 9999 BKN015 BKN021 OVC027 22/18 Q1012 TEMPO 30012KT 4000 SHRA FEW030CB BKN040
13:30
M
22 °C 10 km+ 2,300 ft Var Var 3 kt METAR LFST 181130Z AUTO VRB03KT 9999 SCT014 OVC023 22/19 Q1013 TEMPO 4000 SHRA FEW030CB BKN040
13:00
M
21 °C 10 km+ 1,100 ft Var Var 2 kt METAR LFST 181100Z AUTO VRB02KT 9999 BKN011 OVC020 21/19 Q1013 TEMPO 4000 SHRA FEW030CB BKN040
12:30
I
21 °C 10 km+ 700 ft Var Var 2 kt METAR LFST 181030Z AUTO VRB02KT 9999 BKN007 OVC012 21/19 Q1013 TEMPO 4000 SHRA FEW030CB BKN040
12:00
I
20 °C 10 km+ 700 ft 150° 150° 4 kt METAR LFST 181000Z AUTO 15004KT 120V180 9999 OVC007 20/18 Q1014 TEMPO 34010KT 4000 SHRA FEW030CB BKN040
11:30
I
20 °C 10 km+ 500 ft Var Var 1 kt METAR LFST 180930Z AUTO VRB01KT 9999 BKN005 OVC015 20/18 Q1013 TEMPO 4000 SHRA FEW030CB BKN040
11:00
L
19 °C 9 km 400 ft 250° 250° 3 kt METAR LFST 180900Z AUTO 25003KT 210V280 9000 OVC004 19/18 Q1013 TEMPO 34010KT 4000 SHRA FEW030CB BKN040
10:30
L
18 °C 7 km 400 ft Var Var 3 kt METAR LFST 180830Z AUTO VRB03KT 7000 -RADZ BKN004/// OVC015/// //////TCU 18/17 Q1014 TEMPO 4000 SHRA FEW030CB BKN040
10:00
L
18 °C 5 km 400 ft Var Var 3 kt METAR LFST 180800Z AUTO VRB03KT 5000 BR BKN004/// BKN023/// OVC029/// //////TCU 18/17 Q1014 TEMPO BKN030 FEW050TCU
09:30
I
18 °C 2 km 800 ft Var Var 3 kt METAR LFST 180730Z AUTO VRB03KT 2000 RA BR SCT004/// BKN008/// BKN018/// ///TCU 18/17 Q1014 TEMPO BKN030 FEW050TCU BECMG 9999 NSW
09:00
M
18 °C 10 km+ 2,100 ft Var Var 3 kt METAR LFST 180700Z AUTO VRB03KT 9999 FEW005 BKN021 BKN028 18/17 Q1014 TEMPO RA BKN030 FEW050TCU
08:30
V
18 °C 10 km+ 4,100 ft Var Var 1 kt METAR LFST 180630Z AUTO VRB01KT 9999 FEW005 BKN041 BKN056 18/17 Q1013 TEMPO RA BKN030 FEW050TCU
08:00
M
18 °C 7 km 5,200 ft Var Var 2 kt METAR LFST 180600Z AUTO VRB02KT 7000 -RA FEW040/// BKN052/// OVC068/// ///TCU 18/17 Q1013 TEMPO RA
07:30
I
17 °C 3.9 km 7,000 ft 230° 230° 3 kt METAR LFST 180530Z AUTO 23003KT 3900 -RA BR FEW047/// SCT056/// OVC070/// //////TCU 17/17 Q1013 BECMG 9999 NSW
07:00
M
18 °C 7 km 7,400 ft 200° 200° 3 kt METAR LFST 180500Z AUTO 20003KT 7000 RA FEW050/// OVC074/// ///TCU 18/17 Q1013 TEMPO SCT060CB
06:30
V
18 °C 10 km+ - Var Var 2 kt METAR LFST 180430Z AUTO VRB02KT CAVOK 18/17 Q1013 TEMPO SHRA SCT060CB
06:00
V
18 °C 10 km+ - Var Var 2 kt METAR LFST 180400Z AUTO VRB02KT CAVOK 18/17 Q1013 TEMPO SHRA SCT060CB
05:30
V
18 °C 10 km+ - Var Var 3 kt METAR LFST 180330Z AUTO VRB03KT CAVOK 18/17 Q1013 TEMPO SHRA SCT060CB
05:00
V
18 °C 10 km+ - 190° 190° 3 kt METAR LFST 180300Z AUTO 19003KT CAVOK 18/17 Q1013 TEMPO 20015G25KT 4000 TSRA SCT060CB
04:30
V
18 °C 10 km+ - 170° 170° 4 kt METAR LFST 180230Z AUTO 17004KT 130V210 CAVOK 18/17 Q1013 TEMPO 20015G25KT 4000 TSRA SCT060CB
04:00
V
18 °C 10 km+ - Var Var 3 kt METAR LFST 180200Z AUTO VRB03KT CAVOK 18/17 Q1013 TEMPO 20015G25KT 4000 TSRA SCT060CB
03:30
V
18 °C 10 km+ - Var Var 2 kt METAR LFST 180130Z AUTO VRB02KT CAVOK 18/17 Q1013 TEMPO 20015G25KT 4000 TSRA SCT060CB
03:00
V
18 °C 10 km+ - 190° 190° 3 kt METAR LFST 180100Z AUTO 19003KT 140V240 CAVOK 18/17 Q1013 TEMPO 20015G25KT 4000 TSRA SCT060CB
02:30
V
18 °C 10 km+ - 170° 170° 5 kt METAR LFST 180030Z AUTO 17005KT 130V190 9999 -RA ///TCU 18/17 Q1013 TEMPO 20015G25KT 4000 TSRA SCT060CB
02:00
V
18 °C 10 km+ 11,000 ft Var Var 3 kt METAR LFST 180000Z AUTO VRB03KT 9999 RA FEW009/// OVC110/// ///CB 18/17 Q1014 TEMPO 20015G25KT 4000 TSRA BKN012
01:30
V
18 °C 9 km - 170° 170° 8 kt METAR LFST 172330Z AUTO 17008KT 140V200 9000 RA //////CB 18/17 Q1013 TEMPO 20015G25KT 4000 TSRA BKN012
01:00
M
18 °C 6 km - 160° 160° 13 kt METAR LFST 172300Z AUTO 16013KT 130V190 6000 RA ///CB 18/16 Q1014 TEMPO 20015G25KT 4000 TSRA BKN012
00:30
V
20 °C 10 km+ - 180° 180° 12 kt METAR LFST 172230Z AUTO 18012KT 150V210 9999 //////CB 20/15 Q1013 TEMPO 20015G25KT 4000 TSRA BKN012
00:00
V
21 °C 10 km+ - 200° 200° 15 kt METAR LFST 172200Z AUTO 20015KT 9999 //////TCU 21/15 Q1012 TEMPO 4000 TSRA SCT060CB BECMG VRB04KT

August 17, 2022

Time Code Weather Temp. Visibility Ceiling Wind METAR/SPECI
23:30
V
21 °C 10 km+ - 190° 190° 15 kt METAR LFST 172130Z AUTO 19015KT 9999 //////CB 21/15 Q1012 TEMPO 4000 TSRA BKN012 BECMG VRB04KT
23:00
V
22 °C 10 km+ - 200° 200° 12 kt METAR LFST 172100Z AUTO 20012KT 9999 ///TCU 22/16 Q1012 TEMPO 4000 TSRA SCT060CB
22:30
V
23 °C 10 km+ - 190° 190° 10 kt METAR LFST 172030Z AUTO 19010KT 160V220 CAVOK 23/16 Q1012 TEMPO 4000 TSRA SCT060CB
22:00
V
23 °C 10 km+ - 180° 180° 7 kt METAR LFST 172000Z AUTO 18007KT 140V210 CAVOK 23/17 Q1011 TEMPO 4000 TSRA SCT060CB
21:30
V
23 °C 10 km+ - 210° 210° 4 kt METAR LFST 171930Z AUTO 21004KT CAVOK 23/17 Q1011 TEMPO 4000 TSRA SCT060CB
21:00
V
24 °C 10 km+ - Var Var 3 kt METAR LFST 171900Z AUTO VRB03KT CAVOK 24/17 Q1011 NOSIG
20:30
V
24 °C 10 km+ - 290° 290° 1 kt METAR LFST 171830Z AUTO 29001KT CAVOK 24/17 Q1010 NOSIG
20:00
V
26 °C 10 km+ - 040° 040° 4 kt METAR LFST 171800Z AUTO 04004KT CAVOK 26/16 Q1010 NOSIG
19:30
V
26 °C 10 km+ - Var Var 2 kt METAR LFST 171730Z AUTO VRB02KT CAVOK 26/16 Q1010 NOSIG
19:00
V
27 °C 10 km+ - 050° 050° 3 kt METAR LFST 171700Z AUTO 05003KT CAVOK 27/16 Q1010 NOSIG
18:30
V
27 °C 10 km+ - 080° 080° 3 kt METAR LFST 171630Z AUTO 08003KT 040V120 CAVOK 27/16 Q1010 NOSIG
18:00
V
27 °C 10 km+ - Var Var 1 kt METAR LFST 171600Z AUTO VRB01KT CAVOK 27/15 Q1010 NOSIG
17:30
V
28 °C 10 km+ - Var Var 2 kt METAR LFST 171530Z AUTO VRB02KT 9999 //////CB 28/16 Q1010 BECMG NSC
17:00
V
28 °C 10 km+ - Var Var 3 kt METAR LFST 171500Z AUTO VRB03KT CAVOK 28/16 Q1011 NOSIG
16:30
V
28 °C 10 km+ - Var Var 3 kt METAR LFST 171430Z AUTO VRB03KT CAVOK 28/17 Q1011 NOSIG
16:00
V
27 °C 10 km+ - 180° 180° 3 kt METAR LFST 171400Z AUTO 18003KT 080V240 CAVOK 27/16 Q1011 TEMPO 30010KT SHRA FEW050CB
15:30
V
26 °C 10 km+ - 190° 190° 5 kt METAR LFST 171330Z AUTO 19005KT 140V240 CAVOK 26/17 Q1011 TEMPO 30010KT SHRA FEW050CB
15:00
V
26 °C 10 km+ - 170° 170° 6 kt METAR LFST 171300Z AUTO 17006KT 100V220 CAVOK 26/17 Q1011 TEMPO 30010KT SHRA FEW050CB
14:30
V
25 °C 10 km+ - 160° 160° 6 kt METAR LFST 171230Z AUTO 16006KT 120V230 CAVOK 25/17 Q1012 TEMPO 30010KT SHRA FEW050CB
14:00
V
24 °C 10 km+ - 160° 160° 6 kt METAR LFST 171200Z AUTO 16006KT 100V210 CAVOK 24/17 Q1012 TEMPO 30010KT SHRA FEW050CB
13:30
V
22 °C 10 km+ - 150° 150° 5 kt METAR LFST 171130Z AUTO 15005KT 090V220 CAVOK 22/18 Q1012 TEMPO 30010KT SHRA FEW050CB
13:00
V
21 °C 10 km+ - 140° 140° 4 kt METAR LFST 171100Z AUTO 14004KT 080V180 9999 FEW041/// SCT110/// ///TCU 21/17 Q1012 TEMPO SHRA FEW050CB BKN100
12:30
V
21 °C 10 km+ - 170° 170° 8 kt METAR LFST 171030Z AUTO 17008KT 140V200 9999 //////CB 21/17 Q1013 TEMPO SHRA
12:00
V
22 °C 10 km+ 12,000 ft 170° 170° 7 kt METAR LFST 171000Z AUTO 17007KT 130V200 9999 FEW050/// BKN120/// ///CB 22/17 Q1013 TEMPO SHRA
11:30
V
22 °C 10 km+ 15,000 ft 200° 200° 8 kt METAR LFST 170930Z AUTO 20008KT 160V230 9999 FEW045 SCT130 OVC150 22/17 Q1012 TEMPO SHRA FEW050CB BKN100
11:00
V
22 °C 10 km+ - 170° 170° 4 kt METAR LFST 170900Z AUTO 17004KT 130V220 CAVOK 22/18 Q1011 TEMPO SHRA FEW050CB BKN100
10:30
V
20 °C 10 km+ - 220° 220° 5 kt METAR LFST 170830Z AUTO 22005KT 9999 //////TCU 20/17 Q1011 TEMPO SHRA FEW050CB BKN100
10:00
V
19 °C 10 km+ - 220° 220° 5 kt METAR LFST 170800Z AUTO 22005KT 9999 ///TCU 19/18 Q1011 TEMPO SHRA FEW050CB BKN100
09:30
V
19 °C 10 km+ - 220° 220° 6 kt METAR LFST 170730Z AUTO 22006KT 9999 //////CB 19/18 Q1011 TEMPO SHRA
09:00
V
19 °C 10 km+ - 220° 220° 5 kt METAR LFST 170700Z AUTO 22005KT 9999 //////CB 19/18 Q1010 TEMPO SHRA BKN008 FEW070CB
08:30
V
19 °C 10 km+ 10,000 ft 100° 100° 5 kt METAR LFST 170630Z AUTO 10005KT 050V130 9999 FEW043/// OVC100/// //////TCU 19/17 Q1010 TEMPO SHRA BKN008 FEW070CB
08:00
V
19 °C 10 km+ - 160° 160° 5 kt METAR LFST 170600Z AUTO 16005KT 100V190 9999 ///TCU 19/17 Q1011 TEMPO SHRA BKN008 FEW070CB
07:30
V
19 °C 10 km+ - 200° 200° 9 kt METAR LFST 170530Z AUTO 20009KT 9999 -RA //////TCU 19/17 Q1011 TEMPO SHRA BKN008 FEW070CB
07:00
V
19 °C 10 km+ - 130° 130° 5 kt METAR LFST 170500Z AUTO 13005KT 090V180 9999 -RA ///CB 19/17 Q1010 TEMPO SHRA
06:30
V
19 °C 10 km+ - 150° 150° 4 kt METAR LFST 170430Z AUTO 15004KT 100V190 9999 -RA //////CB 19/17 Q1011 TEMPO SHRA
06:00
V
19 °C 8 km - 170° 170° 8 kt METAR LFST 170400Z AUTO 17008KT 8000 -RA //////CB 19/16 Q1011 TEMPO SHRA
05:30
V
20 °C 10 km+ - 130° 130° 5 kt METAR LFST 170330Z AUTO 13005KT 9999 -RA //////TCU 20/16 Q1011 TEMPO SHRA FEW070CB
05:00
V
20 °C 10 km+ - 110° 110° 4 kt METAR LFST 170300Z AUTO 11004KT 9999 -RA ///TCU 20/16 Q1010 TEMPO 26015G25KT SHRA FEW070CB
04:30
V
20 °C 10 km+ - 220° 220° 3 kt METAR LFST 170230Z AUTO 22003KT 9999 //////TCU 20/15 Q1010 TEMPO 26015G25KT SHRA FEW070CB
04:00
V
20 °C 10 km+ - Var Var 1 kt METAR LFST 170200Z AUTO VRB01KT CAVOK 20/16 Q1010 TEMPO 26015G25KT SHRA FEW070CB
03:30
V
19 °C 10 km+ - Var Var 3 kt METAR LFST 170130Z AUTO VRB03KT CAVOK 19/16 Q1010 TEMPO 26015G25KT SHRA FEW070CB
03:00
V
19 °C 10 km+ - 300° 300° 3 kt METAR LFST 170100Z AUTO 30003KT CAVOK 19/16 Q1009 TEMPO 26015G25KT SHRA FEW070CB
02:30
V
20 °C 10 km+ - 320° 320° 3 kt METAR LFST 170030Z AUTO 32003KT CAVOK 20/15 Q1009 TEMPO 26015G25KT SHRA FEW070CB
02:00
V
20 °C 10 km+ - 340° 340° 2 kt METAR LFST 170000Z AUTO 34002KT CAVOK 20/15 Q1009 TEMPO SHRA FEW070CB
01:30
V
19 °C 10 km+ - 340° 340° 4 kt METAR LFST 162330Z AUTO 34004KT CAVOK 19/16 Q1009 TEMPO 3000 TSRA SCT080CB
01:00
V
19 °C 10 km+ - 330° 330° 3 kt METAR LFST 162300Z AUTO 33003KT 310V010 CAVOK 19/16 Q1010 TEMPO 3000 TSRA SCT080CB
00:30
V
19 °C 10 km+ - 300° 300° 2 kt METAR LFST 162230Z AUTO 30002KT CAVOK 19/16 Q1010 TEMPO 36010G20KT 3000 TSRA SCT080CB
00:00
V
19 °C 10 km+ - 320° 320° 2 kt METAR LFST 162200Z AUTO 32002KT CAVOK 19/16 Q1010 NOSIG

August 16, 2022

Time Code Weather Temp. Visibility Ceiling Wind METAR/SPECI
23:30
V
20 °C 10 km+ - 260° 260° 3 kt METAR LFST 162130Z AUTO 26003KT CAVOK 20/15 Q1010 NOSIG
23:00
V
20 °C 10 km+ - 320° 320° 3 kt METAR LFST 162100Z AUTO 32003KT CAVOK 20/16 Q1009 NOSIG
22:30
V
21 °C 10 km+ - Var Var 2 kt METAR LFST 162030Z AUTO VRB02KT CAVOK 21/16 Q1009 NOSIG
22:00
V
22 °C 10 km+ - Var Var 2 kt METAR LFST 162000Z AUTO VRB02KT CAVOK 22/16 Q1009 NOSIG
21:30
V
23 °C 10 km+ - 360° 360° 3 kt METAR LFST 161930Z AUTO 36003KT CAVOK 23/16 Q1009 NOSIG
21:00
V
25 °C 10 km+ - 040° 040° 4 kt METAR LFST 161900Z AUTO 04004KT CAVOK 25/14 Q1009 NOSIG
20:30
V
27 °C 10 km+ - 040° 040° 5 kt METAR LFST 161830Z AUTO 04005KT CAVOK 27/14 Q1009 NOSIG
20:00
V
28 °C 10 km+ - 050° 050° 5 kt METAR LFST 161800Z AUTO 05005KT 020V080 CAVOK 28/14 Q1009 NOSIG
19:30
V
29 °C 10 km+ - 040° 040° 4 kt METAR LFST 161730Z AUTO 04004KT CAVOK 29/14 Q1009 NOSIG
19:00
V
29 °C 10 km+ - Var Var 3 kt METAR LFST 161700Z AUTO VRB03KT CAVOK 29/13 Q1009 NOSIG
18:30
V
30 °C 10 km+ - 030° 030° 3 kt METAR LFST 161630Z AUTO 03003KT 280V080 CAVOK 30/14 Q1009 NOSIG
18:00
V
30 °C 10 km+ - 180° 180° 4 kt METAR LFST 161600Z AUTO 18004KT 100V220 CAVOK 30/14 Q1009 NOSIG
17:30
V
30 °C 10 km+ - Var Var 3 kt METAR LFST 161530Z AUTO VRB03KT CAVOK 30/14 Q1009 NOSIG
17:00
V
30 °C 10 km+ - 120° 120° 4 kt METAR LFST 161500Z AUTO 12004KT 050V220 CAVOK 30/15 Q1009 NOSIG
Older data

We and third parties follow your internet behavior on our website with cookies. If you continue, we assume you agree with our cookie policy. Learn more